createdAt,value
2022-10-25T00:02:24.737Z,9.30
2022-10-25T00:04:52.322Z,9.30
2022-10-25T00:07:19.629Z,9.30
2022-10-25T00:09:47.022Z,9.30
2022-10-25T00:12:14.296Z,9.10
2022-10-25T00:14:41.688Z,9.20
2022-10-25T00:17:09.394Z,9.30
2022-10-25T00:19:37.002Z,9.20
2022-10-25T00:22:04.327Z,9.20
2022-10-25T00:24:31.706Z,9.30
2022-10-25T00:26:59.060Z,9.30
2022-10-25T00:29:26.483Z,9.30
2022-10-25T00:31:53.832Z,9.20
2022-10-25T00:34:21.253Z,9.30
2022-10-25T00:36:48.606Z,9.30
2022-10-25T00:39:15.975Z,9.30
2022-10-25T00:41:43.375Z,9.30
2022-10-25T00:44:55.932Z,9.30
2022-10-25T00:47:41.309Z,9.30
2022-10-25T00:50:20.680Z,9.40
2022-10-25T00:52:51.850Z,9.40
2022-10-25T00:55:21.889Z,9.40
2022-10-25T00:58:17.399Z,9.50
2022-10-25T01:00:47.711Z,9.60
2022-10-25T01:03:17.837Z,9.40
2022-10-25T01:05:45.467Z,9.40
2022-10-25T01:08:13.126Z,9.30
2022-10-25T01:10:41.180Z,9.40
2022-10-25T01:13:08.588Z,9.50
2022-10-25T01:15:44.673Z,9.40
2022-10-25T01:18:37.930Z,9.50
2022-10-25T01:21:45.863Z,9.50
2022-10-25T01:24:45.339Z,9.50
2022-10-25T01:28:02.291Z,9.40
2022-10-25T01:30:55.464Z,9.30
2022-10-25T01:33:48.546Z,9.40
2022-10-25T01:36:46.302Z,9.30
2022-10-25T01:40:09.372Z,9.30
2022-10-25T01:42:55.056Z,9.40
2022-10-25T01:45:31.718Z,9.50
2022-10-25T01:48:22.097Z,9.50
2022-10-25T01:50:49.624Z,9.30
2022-10-25T01:53:17.042Z,9.40
2022-10-25T01:55:51.940Z,9.40
2022-10-25T01:58:48.291Z,9.40
2022-10-25T02:01:54.359Z,9.30
2022-10-25T02:04:56.122Z,9.10
2022-10-25T02:07:37.088Z,9.20
2022-10-25T02:10:11.328Z,9.10
2022-10-25T02:13:02.199Z,9.10
2022-10-25T02:15:40.945Z,9.10
2022-10-25T02:18:14.863Z,9.00
2022-10-25T02:20:46.609Z,9.00
2022-10-25T02:23:15.306Z,9.00
2022-10-25T02:25:45.796Z,9.00
2022-10-25T02:28:16.016Z,9.00
2022-10-25T02:30:44.780Z,9.00
2022-10-25T02:33:12.522Z,9.00
2022-10-25T02:35:39.869Z,9.10
2022-10-25T02:38:07.792Z,9.20
2022-10-25T02:40:36.039Z,9.20
2022-10-25T02:43:03.385Z,9.20
2022-10-25T02:45:30.712Z,9.10
2022-10-25T02:47:58.104Z,9.10
2022-10-25T02:50:25.441Z,9.40
2022-10-25T02:52:52.792Z,9.50
2022-10-25T02:55:20.133Z,9.50
2022-10-25T02:57:47.488Z,9.80
2022-10-25T03:00:15.573Z,9.70
2022-10-25T03:02:42.970Z,9.90
2022-10-25T03:05:10.513Z,9.90
2022-10-25T03:07:37.877Z,9.90
2022-10-25T03:10:05.979Z,10.00
2022-10-25T03:12:33.352Z,9.90
2022-10-25T03:15:00.687Z,9.90
2022-10-25T03:17:28.060Z,9.90
2022-10-25T03:19:55.364Z,9.90
2022-10-25T03:22:22.737Z,9.80
2022-10-25T03:24:50.088Z,9.90
2022-10-25T03:27:17.911Z,9.90
2022-10-25T03:29:45.236Z,9.70
2022-10-25T03:32:12.606Z,9.70
2022-10-25T03:34:39.934Z,9.60
2022-10-25T03:37:07.324Z,9.50
2022-10-25T03:39:34.669Z,9.60
2022-10-25T03:42:02.029Z,9.60
2022-10-25T03:44:29.361Z,9.50
2022-10-25T03:46:56.740Z,9.60
2022-10-25T03:49:24.080Z,9.60
2022-10-25T03:51:53.961Z,9.50
2022-10-25T03:54:28.337Z,9.50
2022-10-25T03:56:57.093Z,9.50
2022-10-25T03:59:24.493Z,9.30
2022-10-25T04:01:52.040Z,9.60
2022-10-25T04:04:19.756Z,9.90
2022-10-25T04:06:47.181Z,9.90
2022-10-25T04:09:14.871Z,9.70
2022-10-25T04:11:42.277Z,9.60
2022-10-25T04:14:09.589Z,9.70
2022-10-25T04:16:37.031Z,9.80
2022-10-25T04:19:04.422Z,10.00
2022-10-25T04:21:31.844Z,10.30
2022-10-25T04:24:01.931Z,10.40
2022-10-25T04:26:31.856Z,10.70
2022-10-25T04:28:59.160Z,11.00
2022-10-25T04:31:26.830Z,11.50
2022-10-25T04:33:55.063Z,11.80
2022-10-25T04:36:23.222Z,11.80
2022-10-25T04:38:52.393Z,11.80
2022-10-25T04:41:20.826Z,11.80
2022-10-25T04:43:50.262Z,11.70
2022-10-25T04:46:18.076Z,11.60
2022-10-25T04:48:45.625Z,11.60
2022-10-25T04:51:13.899Z,11.80
2022-10-25T04:53:41.481Z,11.80
2022-10-25T04:56:12.568Z,11.80
2022-10-25T04:58:40.389Z,11.70
2022-10-25T05:01:11.532Z,11.50
2022-10-25T05:03:39.298Z,11.50
2022-10-25T05:06:25.483Z,11.60
2022-10-25T05:08:53.932Z,11.50
2022-10-25T05:11:24.266Z,11.40
2022-10-25T05:13:51.824Z,11.60
2022-10-25T05:16:23.485Z,11.20
2022-10-25T05:18:55.463Z,11.10
2022-10-25T05:21:28.249Z,11.00
2022-10-25T05:24:00.558Z,11.10
2022-10-25T05:26:30.660Z,11.50
2022-10-25T05:28:58.178Z,11.00
2022-10-25T05:31:30.330Z,10.90
2022-10-25T05:33:59.947Z,10.70
2022-10-25T05:36:32.974Z,10.60
2022-10-25T05:39:01.265Z,10.60
2022-10-25T05:41:31.829Z,10.60
2022-10-25T05:44:02.410Z,10.50
2022-10-25T05:46:29.802Z,10.30
2022-10-25T05:48:59.189Z,10.20
2022-10-25T05:51:37.212Z,10.00
2022-10-25T05:54:10.403Z,9.90
2022-10-25T05:56:39.039Z,9.90
2022-10-25T05:59:12.868Z,9.80
2022-10-25T06:01:45.749Z,9.70
2022-10-25T06:04:14.101Z,9.70
2022-10-25T06:06:43.268Z,9.70
2022-10-25T06:09:11.499Z,9.70
2022-10-25T06:11:40.009Z,9.80
2022-10-25T06:14:09.538Z,10.00
2022-10-25T06:16:37.918Z,10.10
2022-10-25T06:19:05.284Z,10.10
2022-10-25T06:21:32.715Z,10.80
2022-10-25T06:24:00.921Z,11.10
2022-10-25T06:26:30.311Z,11.70
2022-10-25T06:29:00.653Z,12.10
2022-10-25T06:31:29.452Z,12.40
2022-10-25T06:33:58.306Z,12.80
2022-10-25T06:36:27.649Z,13.00
2022-10-25T06:38:55.134Z,13.20
2022-10-25T06:41:28.102Z,13.30
2022-10-25T06:43:56.378Z,13.30
2022-10-25T06:46:29.993Z,13.40
2022-10-25T06:48:58.232Z,13.40
2022-10-25T06:51:27.464Z,13.50
2022-10-25T06:53:59.468Z,13.60
2022-10-25T06:56:27.886Z,13.60
2022-10-25T06:58:55.733Z,13.60
2022-10-25T07:01:25.212Z,13.70
2022-10-25T07:03:54.239Z,13.90
2022-10-25T07:06:27.192Z,13.90
2022-10-25T07:08:57.265Z,14.10
2022-10-25T07:11:26.592Z,14.10
2022-10-25T07:13:55.104Z,14.20
2022-10-25T07:16:22.707Z,14.20
2022-10-25T07:18:50.837Z,14.30
2022-10-25T07:21:21.142Z,14.20
2022-10-25T07:23:49.865Z,14.30
2022-10-25T07:26:29.085Z,14.20
2022-10-25T07:28:58.482Z,14.30
2022-10-25T07:31:31.451Z,14.30
2022-10-25T07:34:00.679Z,14.30
2022-10-25T07:36:28.381Z,14.30
2022-10-25T07:38:57.092Z,14.40
2022-10-25T07:41:25.600Z,14.40
2022-10-25T07:43:53.048Z,14.30
2022-10-25T07:46:20.402Z,14.40
2022-10-25T07:48:47.724Z,14.50
2022-10-25T07:51:17.113Z,14.60
2022-10-25T07:53:45.169Z,14.80
2022-10-25T07:56:17.392Z,15.00
2022-10-25T07:58:48.281Z,15.10
2022-10-25T08:01:21.303Z,15.10
2022-10-25T08:03:49.118Z,15.20
2022-10-25T08:06:16.442Z,15.40
2022-10-25T08:08:44.313Z,15.60
2022-10-25T08:11:11.835Z,15.80
2022-10-25T08:13:39.905Z,16.00
2022-10-25T08:16:07.976Z,16.10
2022-10-25T08:18:35.908Z,16.40
2022-10-25T08:21:04.521Z,16.40
2022-10-25T08:23:32.916Z,16.50
2022-10-25T08:26:01.382Z,16.60
2022-10-25T08:28:31.275Z,16.70
2022-10-25T08:31:00.942Z,16.60
2022-10-25T08:33:29.507Z,16.60
2022-10-25T08:36:00.149Z,16.50
2022-10-25T08:38:27.515Z,16.50
2022-10-25T08:41:06.875Z,16.40
2022-10-25T08:44:11.725Z,16.50
2022-10-25T08:47:18.971Z,16.50
2022-10-25T08:50:13.153Z,16.70
2022-10-25T08:52:46.686Z,17.10
2022-10-25T08:55:18.044Z,17.50
2022-10-25T08:57:47.960Z,17.60
2022-10-25T09:00:22.525Z,17.70
2022-10-25T09:02:56.639Z,17.70
2022-10-25T09:05:41.582Z,17.50
2022-10-25T09:09:07.257Z,17.80
2022-10-25T09:12:05.302Z,18.30
2022-10-25T09:14:50.341Z,18.30
2022-10-25T09:17:33.561Z,18.30
2022-10-25T09:20:05.952Z,18.40
2022-10-25T09:23:09.161Z,18.30
2022-10-25T09:25:56.895Z,17.90
2022-10-25T09:28:46.417Z,17.80
2022-10-25T09:31:19.852Z,17.70
2022-10-25T09:33:49.005Z,18.00
2022-10-25T09:36:16.447Z,17.90
2022-10-25T09:39:32.199Z,18.00
2022-10-25T09:42:02.371Z,18.30
2022-10-25T09:44:41.828Z,18.50
2022-10-25T09:47:23.768Z,18.40
2022-10-25T09:50:37.544Z,18.10
2022-10-25T09:53:18.824Z,17.90
2022-10-25T09:56:07.144Z,17.70
2022-10-25T09:58:40.537Z,17.50
2022-10-25T10:01:28.489Z,17.30
2022-10-25T10:04:21.037Z,17.20
2022-10-25T10:06:50.789Z,17.10
2022-10-25T10:09:18.326Z,17.10
2022-10-25T10:11:48.252Z,17.10
2022-10-25T10:14:36.171Z,17.00
2022-10-25T10:17:05.850Z,16.90
2022-10-25T10:19:33.217Z,16.90
2022-10-25T10:22:08.939Z,17.00
2022-10-25T10:24:42.278Z,16.90
2022-10-25T10:27:25.204Z,16.80
2022-10-25T10:30:01.459Z,16.80
2022-10-25T10:32:37.756Z,16.80
2022-10-25T10:35:25.791Z,16.80
2022-10-25T10:37:53.172Z,16.70
2022-10-25T10:40:24.792Z,16.60
2022-10-25T10:42:54.692Z,16.60
2022-10-25T10:45:25.658Z,16.50
2022-10-25T10:47:58.239Z,16.60
2022-10-25T10:50:30.384Z,16.60
2022-10-25T10:53:21.146Z,16.50
2022-10-25T10:55:50.143Z,16.50
2022-10-25T10:58:26.396Z,16.50
2022-10-25T11:01:05.574Z,16.50
2022-10-25T11:04:03.407Z,16.50
2022-10-25T11:06:35.363Z,16.40
2022-10-25T11:09:32.194Z,16.30
2022-10-25T11:12:07.963Z,16.30
2022-10-25T11:14:35.385Z,16.40
2022-10-25T11:17:27.695Z,16.50
2022-10-25T11:20:36.842Z,16.80
2022-10-25T11:23:16.780Z,17.30
2022-10-25T11:25:52.864Z,17.70
2022-10-25T11:29:11.323Z,17.90
2022-10-25T11:32:26.725Z,18.00
2022-10-25T11:35:48.417Z,18.30
2022-10-25T11:38:50.501Z,18.10
2022-10-25T11:41:49.127Z,18.10
2022-10-25T11:44:43.056Z,17.90
2022-10-25T11:47:56.156Z,17.80
2022-10-25T11:50:46.297Z,17.60
2022-10-25T11:53:37.443Z,17.40
2022-10-25T11:56:19.513Z,17.20
2022-10-25T11:59:01.341Z,17.20
2022-10-25T12:02:04.933Z,17.30
2022-10-25T12:04:52.519Z,17.40
2022-10-25T12:07:30.196Z,17.40
2022-10-25T12:10:34.322Z,17.60
2022-10-25T12:13:13.649Z,17.60
2022-10-25T12:15:50.321Z,17.90
2022-10-25T12:18:26.190Z,18.20
2022-10-25T12:20:54.558Z,18.20
2022-10-25T12:23:25.396Z,18.20
2022-10-25T12:25:58.628Z,18.20
2022-10-25T12:28:35.406Z,18.10
2022-10-25T12:31:14.157Z,18.20
2022-10-25T12:33:47.685Z,18.30
2022-10-25T12:36:27.149Z,18.20
2022-10-25T12:38:55.528Z,18.30
2022-10-25T12:41:28.761Z,18.10
2022-10-25T12:44:21.490Z,18.00
2022-10-25T12:47:20.179Z,17.90
2022-10-25T12:50:25.216Z,18.00
2022-10-25T12:53:49.142Z,17.90
2022-10-25T12:56:53.995Z,17.60
2022-10-25T12:59:45.646Z,17.50
2022-10-25T13:03:05.057Z,17.00
2022-10-25T13:06:42.671Z,16.70
2022-10-25T13:09:21.060Z,16.50
2022-10-25T13:12:04.705Z,16.30
2022-10-25T13:14:43.421Z,16.20
2022-10-25T13:17:43.928Z,16.20
2022-10-25T13:20:28.516Z,16.20
2022-10-25T13:22:56.223Z,16.20
2022-10-25T13:25:52.715Z,16.20
2022-10-25T13:28:32.690Z,16.20
2022-10-25T13:31:55.469Z,16.20
2022-10-25T13:34:30.993Z,16.30
2022-10-25T13:37:00.239Z,16.30
2022-10-25T13:39:46.141Z,16.20
2022-10-25T13:42:37.607Z,16.20
2022-10-25T13:45:09.385Z,16.20
2022-10-25T13:47:43.570Z,16.20
2022-10-25T13:50:29.972Z,16.00
2022-10-25T13:53:02.621Z,15.90
2022-10-25T13:55:36.724Z,15.90
2022-10-25T13:58:31.647Z,15.90
2022-10-25T14:01:38.152Z,16.00
2022-10-25T14:04:36.220Z,16.00
2022-10-25T14:07:41.069Z,16.00
2022-10-25T14:10:24.240Z,16.10
2022-10-25T14:12:53.923Z,16.10
2022-10-25T14:16:02.647Z,16.10
2022-10-25T14:18:33.579Z,16.10
2022-10-25T14:21:05.624Z,16.20
2022-10-25T14:23:35.373Z,16.20
2022-10-25T14:26:05.225Z,16.20
2022-10-25T14:28:35.164Z,16.10
2022-10-25T14:31:06.892Z,16.10
2022-10-25T14:33:54.616Z,16.00
2022-10-25T14:36:30.532Z,16.00
2022-10-25T14:38:59.744Z,15.90
2022-10-25T14:41:33.241Z,15.90
2022-10-25T14:44:02.282Z,15.70
2022-10-25T14:46:30.645Z,15.70
2022-10-25T14:49:00.326Z,15.50
2022-10-25T14:51:32.092Z,15.40
2022-10-25T14:54:07.077Z,15.30
2022-10-25T14:56:55.500Z,15.20
2022-10-25T14:59:46.194Z,15.30
2022-10-25T15:02:32.167Z,15.30
2022-10-25T15:05:01.850Z,15.20
2022-10-25T15:07:32.385Z,15.10
2022-10-25T15:10:01.821Z,15.00
2022-10-25T15:12:31.462Z,14.90
2022-10-25T15:15:18.847Z,14.80
2022-10-25T15:17:50.900Z,14.60
2022-10-25T15:20:28.517Z,14.40
2022-10-25T15:23:14.681Z,14.10
2022-10-25T15:25:42.148Z,13.80
2022-10-25T15:28:15.619Z,13.50
2022-10-25T15:31:14.766Z,13.30
2022-10-25T15:33:45.733Z,13.00
2022-10-25T15:36:22.871Z,12.90
2022-10-25T15:39:07.140Z,12.80
2022-10-25T15:41:36.580Z,12.70
2022-10-25T15:44:04.007Z,12.60
2022-10-25T15:46:33.576Z,12.50
2022-10-25T15:49:04.151Z,12.40
2022-10-25T15:51:37.279Z,12.20
2022-10-25T15:54:04.900Z,12.20
2022-10-25T15:56:32.313Z,12.10
2022-10-25T15:59:02.399Z,11.90
2022-10-25T16:01:30.246Z,11.80
2022-10-25T16:03:57.680Z,11.70
2022-10-25T16:06:25.073Z,11.70
2022-10-25T16:08:52.393Z,11.60
2022-10-25T16:11:21.073Z,11.40
2022-10-25T16:13:52.154Z,11.40
2022-10-25T16:16:39.450Z,11.40
2022-10-25T16:19:16.656Z,11.20
2022-10-25T16:21:44.576Z,11.20
2022-10-25T16:24:12.467Z,11.10
2022-10-25T16:26:43.433Z,11.10
2022-10-25T16:29:16.044Z,11.10
2022-10-25T16:31:43.696Z,11.00
2022-10-25T16:34:11.934Z,11.00
2022-10-25T16:36:39.348Z,10.90
2022-10-25T16:39:07.736Z,10.80
2022-10-25T16:41:38.807Z,10.80
2022-10-25T16:44:06.461Z,10.70
2022-10-25T16:46:33.843Z,10.70
2022-10-25T16:49:02.229Z,10.70
2022-10-25T16:51:30.199Z,10.70
2022-10-25T16:53:58.482Z,10.50
2022-10-25T16:56:25.877Z,10.50
2022-10-25T16:58:53.283Z,10.40
2022-10-25T17:01:22.361Z,10.40
2022-10-25T17:03:50.838Z,10.40
2022-10-25T17:06:40.384Z,10.30
2022-10-25T17:09:06.968Z,10.20
2022-10-25T17:11:34.328Z,10.30
2022-10-25T17:14:01.702Z,10.20
2022-10-25T17:16:29.096Z,10.10
2022-10-25T17:18:56.566Z,10.10
2022-10-25T17:21:24.106Z,10.00
2022-10-25T17:23:51.535Z,10.00
2022-10-25T17:26:19.038Z,9.90
2022-10-25T17:28:46.663Z,9.90
2022-10-25T17:31:15.393Z,9.80
2022-10-25T17:33:43.539Z,9.80
2022-10-25T17:36:20.603Z,9.80
2022-10-25T17:38:48.219Z,9.80
2022-10-25T17:41:15.660Z,9.80
2022-10-25T17:43:42.995Z,9.80
2022-10-25T17:46:17.635Z,9.90
2022-10-25T17:48:45.593Z,9.90
2022-10-25T17:51:14.983Z,9.80
2022-10-25T17:53:42.387Z,9.80
2022-10-25T17:56:15.122Z,9.90
2022-10-25T17:58:44.179Z,9.80
2022-10-25T18:01:14.263Z,9.80
2022-10-25T18:03:41.843Z,9.80
2022-10-25T18:06:12.765Z,9.70
2022-10-25T18:08:40.302Z,9.60
2022-10-25T18:11:13.064Z,9.50
2022-10-25T18:13:41.783Z,9.50
2022-10-25T18:16:10.464Z,9.50
2022-10-25T18:18:38.736Z,9.40
2022-10-25T18:21:08.604Z,9.40
2022-10-25T18:23:36.545Z,9.30
2022-10-25T18:26:06.037Z,9.40
2022-10-25T18:28:34.316Z,9.40
2022-10-25T18:31:04.530Z,9.40
2022-10-25T18:33:33.166Z,9.40
2022-10-25T18:36:11.457Z,9.40
2022-10-25T18:38:38.869Z,9.30
2022-10-25T18:41:08.566Z,9.20
2022-10-25T18:43:36.182Z,9.10
2022-10-25T18:46:03.558Z,9.20
2022-10-25T18:48:31.309Z,9.00
2022-10-25T18:51:11.118Z,9.00
2022-10-25T18:53:39.545Z,8.90
2022-10-25T18:56:14.965Z,8.80
2022-10-25T18:58:45.575Z,8.80
2022-10-25T19:04:25.300Z,8.70
2022-10-25T19:06:52.667Z,8.70
2022-10-25T19:09:20.193Z,8.60
2022-10-25T19:11:47.558Z,8.70
2022-10-25T19:14:14.845Z,8.80
2022-10-25T19:16:42.487Z,8.80
2022-10-25T19:19:11.919Z,8.70
2022-10-25T19:21:39.335Z,8.70
2022-10-25T19:24:07.260Z,8.60
2022-10-25T19:26:34.641Z,8.50
2022-10-25T19:29:01.991Z,8.50
2022-10-25T19:31:29.810Z,8.50
2022-10-25T19:34:00.438Z,8.60
2022-10-25T19:36:28.111Z,8.50
2022-10-25T19:38:55.491Z,8.50
2022-10-25T19:41:23.827Z,8.40
2022-10-25T19:43:51.658Z,8.40
2022-10-25T19:46:19.164Z,8.50
2022-10-25T19:48:46.537Z,8.50
2022-10-25T19:51:17.106Z,8.40
2022-10-25T19:53:44.832Z,8.40
2022-10-25T19:56:21.058Z,8.40
2022-10-25T19:58:49.496Z,8.40
2022-10-25T20:01:27.321Z,8.20
2022-10-25T20:03:57.404Z,8.10
2022-10-25T20:06:30.447Z,8.00
2022-10-25T20:08:59.221Z,8.00
2022-10-25T20:11:27.679Z,8.00
2022-10-25T20:13:56.768Z,8.00
2022-10-25T20:16:25.174Z,8.00
2022-10-25T20:18:52.889Z,8.00
2022-10-25T20:21:24.923Z,8.00
2022-10-25T20:23:57.281Z,7.90
2022-10-25T20:26:27.522Z,7.90
2022-10-25T20:29:04.347Z,7.90
2022-10-25T20:31:33.919Z,7.90
2022-10-25T20:34:04.436Z,7.90
2022-10-25T20:36:32.112Z,7.90
2022-10-25T20:38:59.461Z,7.90
2022-10-25T20:41:29.737Z,8.00
2022-10-25T20:44:05.798Z,7.90
2022-10-25T20:46:34.494Z,8.00
2022-10-25T20:49:02.358Z,8.00
2022-10-25T20:51:29.732Z,8.00
2022-10-25T20:53:57.316Z,8.00
2022-10-25T20:56:25.344Z,8.10
2022-10-25T20:58:52.619Z,8.30
2022-10-25T21:01:20.150Z,8.20
2022-10-25T21:03:47.606Z,8.10
2022-10-25T21:06:14.995Z,8.00
2022-10-25T21:08:42.309Z,8.00
2022-10-25T21:11:12.018Z,8.00
2022-10-25T21:13:39.835Z,8.10
2022-10-25T21:16:15.304Z,8.00
2022-10-25T21:18:43.822Z,7.90
2022-10-25T21:21:20.652Z,7.90
2022-10-25T21:23:48.523Z,7.90
2022-10-25T21:26:16.135Z,7.90
2022-10-25T21:28:43.479Z,7.90
2022-10-25T21:31:13.293Z,8.00
2022-10-25T21:33:42.031Z,7.80
2022-10-25T21:36:12.322Z,7.80
2022-10-25T21:38:40.443Z,7.70
2022-10-25T21:41:13.705Z,7.60
2022-10-25T21:43:43.889Z,7.50
2022-10-25T21:46:11.721Z,7.60
2022-10-25T21:48:39.182Z,7.50
2022-10-25T21:51:07.022Z,7.60
2022-10-25T21:53:34.354Z,7.60
2022-10-25T21:56:13.119Z,7.70
2022-10-25T21:58:42.018Z,7.80
2022-10-25T22:01:12.474Z,7.80
2022-10-25T22:03:40.159Z,7.80
2022-10-25T22:06:14.316Z,7.70
2022-10-25T22:08:42.368Z,7.70
2022-10-25T22:11:27.878Z,7.60
2022-10-25T22:13:57.799Z,7.60
2022-10-25T22:16:25.926Z,7.50
2022-10-25T22:18:57.642Z,7.50
2022-10-25T22:21:27.302Z,7.60
2022-10-25T22:23:54.645Z,7.60
2022-10-25T22:26:22.626Z,7.50
2022-10-25T22:28:55.186Z,7.40
2022-10-25T22:31:23.066Z,7.50
2022-10-25T22:33:54.977Z,7.60
2022-10-25T22:36:24.367Z,7.50
2022-10-25T22:38:51.765Z,7.50
2022-10-25T22:41:21.177Z,7.40
2022-10-25T22:43:49.711Z,7.40
2022-10-25T22:46:25.245Z,7.30
2022-10-25T22:48:54.598Z,7.40
2022-10-25T22:51:23.367Z,7.30
2022-10-25T22:53:50.721Z,7.50
2022-10-25T22:56:20.901Z,7.50
2022-10-25T22:58:53.616Z,7.50
2022-10-25T23:01:30.751Z,7.50
2022-10-25T23:03:59.271Z,7.40
2022-10-25T23:06:29.341Z,7.30
2022-10-25T23:08:58.272Z,7.30
2022-10-25T23:11:28.706Z,7.30
2022-10-25T23:14:00.096Z,7.30
2022-10-25T23:16:28.660Z,7.20
2022-10-25T23:18:56.297Z,7.30
2022-10-25T23:21:30.266Z,7.20
2022-10-25T23:23:59.237Z,7.10
2022-10-25T23:26:32.527Z,7.20
2022-10-25T23:29:01.103Z,7.20
2022-10-25T23:31:30.210Z,7.20
2022-10-25T23:33:59.816Z,7.20
2022-10-25T23:36:29.715Z,7.10
2022-10-25T23:38:58.836Z,7.20
2022-10-25T23:41:26.275Z,7.10
2022-10-25T23:43:53.564Z,7.20
2022-10-25T23:46:21.108Z,7.10
2022-10-25T23:48:48.433Z,7.20
2022-10-25T23:51:17.664Z,7.10
2022-10-25T23:53:45.616Z,7.20
2022-10-25T23:56:14.062Z,7.10
2022-10-25T23:58:41.723Z,7.20
